createdAt,value
2023-05-06T00:02:26.271Z,7.85
2023-05-06T00:04:53.054Z,8.32
2023-05-06T00:07:19.581Z,9.27
2023-05-06T00:09:46.130Z,10.15
2023-05-06T00:12:12.817Z,9.00
2023-05-06T00:14:39.281Z,9.70
2023-05-06T00:17:05.944Z,7.68
2023-05-06T00:19:32.584Z,6.88
2023-05-06T00:21:59.085Z,6.70
2023-05-06T00:24:25.545Z,6.38
2023-05-06T00:26:52.468Z,6.53
2023-05-06T00:29:18.958Z,5.55
2023-05-06T00:31:45.705Z,6.32
2023-05-06T00:34:12.350Z,4.95
2023-05-06T00:36:39.189Z,6.63
2023-05-06T00:39:06.089Z,5.55
2023-05-06T00:41:35.731Z,4.72
2023-05-06T00:44:02.223Z,4.78
2023-05-06T00:46:28.651Z,6.10
2023-05-06T00:48:56.017Z,5.32
2023-05-06T00:51:23.013Z,7.97
2023-05-06T00:53:49.790Z,4.20
2023-05-06T00:56:19.971Z,7.22
2023-05-06T00:58:47.829Z,8.13
2023-05-06T01:01:14.441Z,5.22
2023-05-06T01:03:40.935Z,5.32
2023-05-06T01:06:07.691Z,4.75
2023-05-06T01:08:36.181Z,5.80
2023-05-06T01:11:07.369Z,7.03
2023-05-06T01:13:36.570Z,4.72
2023-05-06T01:16:04.753Z,5.10
2023-05-06T01:18:32.371Z,4.63
2023-05-06T01:20:59.354Z,4.90
2023-05-06T01:23:26.735Z,5.65
2023-05-06T01:25:53.196Z,8.05
2023-05-06T01:28:19.743Z,6.43
2023-05-06T01:30:51.981Z,5.65
2023-05-06T01:33:20.714Z,4.97
2023-05-06T01:35:54.003Z,5.05
2023-05-06T01:38:39.054Z,4.72
2023-05-06T01:41:05.816Z,5.78
2023-05-06T01:43:34.833Z,5.25
2023-05-06T01:46:02.924Z,5.35
2023-05-06T01:48:31.961Z,6.72
2023-05-06T01:50:58.447Z,4.15
2023-05-06T01:55:52.276Z,5.15
2023-05-06T01:58:18.810Z,5.07
2023-05-06T02:00:45.293Z,4.97
2023-05-06T02:03:12.356Z,6.68
2023-05-06T02:05:39.033Z,4.68
2023-05-06T02:08:05.877Z,5.30
2023-05-06T02:10:32.551Z,4.38
2023-05-06T02:13:03.301Z,6.15
2023-05-06T02:15:30.193Z,5.25
2023-05-06T02:17:57.531Z,4.70
2023-05-06T02:20:25.726Z,5.13
2023-05-06T02:22:52.250Z,4.85
2023-05-06T02:25:18.750Z,5.72
2023-05-06T02:27:45.368Z,4.63
2023-05-06T02:30:12.098Z,5.20
2023-05-06T02:32:38.618Z,4.43
2023-05-06T02:35:05.291Z,6.45
2023-05-06T02:37:31.752Z,5.68
2023-05-06T02:40:00.349Z,6.45
2023-05-06T02:42:26.851Z,6.18
2023-05-06T02:44:53.435Z,5.53
2023-05-06T02:47:20.038Z,5.00
2023-05-06T02:49:46.718Z,6.07
2023-05-06T02:52:13.248Z,4.72
2023-05-06T02:54:39.702Z,5.60
2023-05-06T02:57:06.199Z,5.85
2023-05-06T02:59:32.682Z,4.75
2023-05-06T03:01:59.186Z,5.55
2023-05-06T03:04:25.679Z,5.53
2023-05-06T03:06:52.155Z,5.38
2023-05-06T03:09:18.718Z,3.53
2023-05-06T03:11:45.330Z,3.33
2023-05-06T03:14:11.880Z,4.72
2023-05-06T03:16:38.717Z,6.22
2023-05-06T03:19:05.421Z,4.45
2023-05-06T03:21:33.233Z,3.95
2023-05-06T03:23:59.936Z,5.50
2023-05-06T03:26:28.771Z,3.83
2023-05-06T03:28:55.957Z,2.85
2023-05-06T03:31:22.821Z,5.22
2023-05-06T03:33:50.289Z,3.90
2023-05-06T03:36:16.992Z,3.58
2023-05-06T03:38:47.355Z,2.65
2023-05-06T03:41:13.907Z,4.63
2023-05-06T03:43:41.019Z,3.53
2023-05-06T03:46:08.014Z,3.90
2023-05-06T03:48:35.973Z,2.97
2023-05-06T03:51:05.421Z,2.95
2023-05-06T03:53:32.224Z,4.30
2023-05-06T03:55:58.646Z,4.00
2023-05-06T03:58:25.169Z,3.38
2023-05-06T04:00:51.981Z,5.38
2023-05-06T04:03:18.922Z,4.70
2023-05-06T04:05:50.012Z,3.65
2023-05-06T04:08:19.194Z,5.03
2023-05-06T04:10:46.257Z,5.22
2023-05-06T04:13:19.614Z,4.05
2023-05-06T04:15:46.189Z,4.15
2023-05-06T04:18:19.319Z,4.47
2023-05-06T04:20:54.026Z,4.68
2023-05-06T04:23:20.637Z,4.90
2023-05-06T04:25:51.004Z,5.65
2023-05-06T04:28:19.803Z,6.78
2023-05-06T04:30:49.672Z,10.43
2023-05-06T04:33:16.781Z,9.82
2023-05-06T04:35:50.066Z,10.15
2023-05-06T04:38:16.873Z,8.57
2023-05-06T04:40:44.267Z,5.53
2023-05-06T04:43:11.843Z,6.90
2023-05-06T04:45:52.864Z,7.68
2023-05-06T04:48:24.099Z,7.00
2023-05-06T04:50:53.402Z,6.30
2023-05-06T04:53:19.895Z,6.00
2023-05-06T04:55:46.621Z,5.53
2023-05-06T04:58:13.394Z,6.20
2023-05-06T05:00:39.915Z,7.55
2023-05-06T05:03:06.495Z,6.18
2023-05-06T05:05:34.400Z,6.50
2023-05-06T05:08:01.440Z,7.05
2023-05-06T05:10:30.567Z,7.95
2023-05-06T05:12:57.564Z,7.03
2023-05-06T05:15:24.005Z,7.07
2023-05-06T05:17:51.166Z,5.95
2023-05-06T05:20:18.814Z,7.00
2023-05-06T05:22:45.536Z,7.10
2023-05-06T05:25:12.465Z,6.05
2023-05-06T05:27:39.255Z,7.00
2023-05-06T05:30:06.430Z,6.47
2023-05-06T05:32:36.875Z,5.65
2023-05-06T05:35:03.631Z,6.38
2023-05-06T05:37:30.143Z,6.80
2023-05-06T05:39:57.347Z,6.15
2023-05-06T05:42:24.037Z,5.82
2023-05-06T05:44:50.900Z,5.90
2023-05-06T05:47:17.506Z,6.20
2023-05-06T05:49:44.436Z,6.60
2023-05-06T05:52:11.875Z,6.65
2023-05-06T05:54:38.799Z,9.10
2023-05-06T05:57:06.095Z,7.38
2023-05-06T05:59:32.878Z,9.68
2023-05-06T06:02:02.754Z,7.63
2023-05-06T06:04:29.386Z,9.07
2023-05-06T06:07:01.949Z,8.48
2023-05-06T06:09:30.911Z,8.35
2023-05-06T06:11:58.701Z,11.45
2023-05-06T06:14:25.329Z,9.70
2023-05-06T06:16:51.880Z,10.55
2023-05-06T06:19:18.405Z,10.73
2023-05-06T06:21:45.601Z,12.10
2023-05-06T06:24:12.812Z,10.95
2023-05-06T06:26:39.276Z,13.50
2023-05-06T06:29:05.908Z,12.32
2023-05-06T06:31:34.077Z,12.10
2023-05-06T06:34:00.932Z,12.50
2023-05-06T06:36:27.830Z,16.02
2023-05-06T06:38:54.422Z,12.65
2023-05-06T06:41:21.192Z,11.57
2023-05-06T06:43:47.644Z,12.35
2023-05-06T06:46:17.048Z,13.15
2023-05-06T06:48:43.653Z,11.27
2023-05-06T06:51:10.140Z,10.70
2023-05-06T06:53:36.645Z,12.88
2023-05-06T06:56:03.293Z,12.80
2023-05-06T06:58:29.780Z,11.32
2023-05-06T07:00:57.418Z,10.60
2023-05-06T07:03:23.920Z,11.48
2023-05-06T07:05:50.364Z,11.32
2023-05-06T07:08:17.288Z,12.05
2023-05-06T07:10:43.857Z,9.77
2023-05-06T07:13:10.628Z,10.80
2023-05-06T07:15:37.074Z,10.32
2023-05-06T07:18:03.677Z,10.98
2023-05-06T07:20:30.124Z,9.52
2023-05-06T07:22:56.595Z,7.50
2023-05-06T07:25:23.237Z,6.28
2023-05-06T07:27:50.303Z,10.95
2023-05-06T07:30:16.809Z,6.22
2023-05-06T07:32:43.488Z,5.85
2023-05-06T07:35:10.093Z,5.55
2023-05-06T07:37:36.882Z,7.15
2023-05-06T07:40:05.532Z,5.75
2023-05-06T07:42:32.127Z,5.68
2023-05-06T07:44:58.662Z,4.75
2023-05-06T07:47:29.345Z,5.18
2023-05-06T07:49:56.163Z,6.00
2023-05-06T07:52:23.210Z,5.85
2023-05-06T07:54:49.846Z,5.60
2023-05-06T07:57:16.489Z,5.78
2023-05-06T07:59:43.991Z,5.32
2023-05-06T08:02:10.626Z,4.85
2023-05-06T08:04:37.219Z,6.03
2023-05-06T08:07:03.800Z,6.20
2023-05-06T08:09:30.337Z,5.25
2023-05-06T08:11:56.898Z,6.35
2023-05-06T08:14:23.592Z,4.38
2023-05-06T08:16:50.483Z,6.70
2023-05-06T08:19:17.276Z,3.97
2023-05-06T08:21:43.756Z,7.32
2023-05-06T08:24:13.635Z,4.35
2023-05-06T08:26:40.370Z,4.30
2023-05-06T08:29:08.072Z,4.18
2023-05-06T08:31:34.574Z,5.85
2023-05-06T08:34:01.192Z,5.10
2023-05-06T08:36:27.647Z,5.30
2023-05-06T08:38:54.129Z,5.53
2023-05-06T08:41:21.652Z,5.72
2023-05-06T08:43:49.075Z,4.15
2023-05-06T08:46:16.071Z,5.80
2023-05-06T08:48:42.579Z,7.10
2023-05-06T08:51:09.381Z,6.32
2023-05-06T08:53:36.111Z,5.20
2023-05-06T08:56:06.904Z,4.18
2023-05-06T08:58:35.026Z,7.07
2023-05-06T09:01:02.859Z,5.15
2023-05-06T09:03:29.800Z,4.25
2023-05-06T09:05:57.023Z,5.43
2023-05-06T09:08:23.606Z,3.53
2023-05-06T09:10:50.462Z,4.75
2023-05-06T09:13:18.195Z,3.90
2023-05-06T09:15:47.301Z,4.45
2023-05-06T09:18:14.084Z,5.10
2023-05-06T09:20:46.323Z,4.30
2023-05-06T09:23:14.122Z,3.88
2023-05-06T09:25:41.653Z,5.80
2023-05-06T09:28:09.634Z,3.70
2023-05-06T09:30:42.957Z,5.78
2023-05-06T09:33:10.099Z,4.68
2023-05-06T09:35:40.761Z,4.03
2023-05-06T09:38:07.783Z,4.18
2023-05-06T09:40:37.634Z,4.55
2023-05-06T09:43:04.601Z,4.50
2023-05-06T09:45:31.597Z,5.47
2023-05-06T09:47:58.653Z,4.15
2023-05-06T09:50:25.859Z,4.32
2023-05-06T09:52:52.392Z,4.32
2023-05-06T09:55:19.786Z,3.97
2023-05-06T09:57:46.675Z,4.28
2023-05-06T10:00:14.568Z,4.28
2023-05-06T10:02:41.589Z,5.18
2023-05-06T10:05:12.992Z,4.57
2023-05-06T10:07:40.740Z,4.28
2023-05-06T10:12:35.929Z,4.32
2023-05-06T10:15:04.363Z,3.38
2023-05-06T10:17:31.740Z,5.70
2023-05-06T10:19:59.475Z,3.30
2023-05-06T10:22:43.906Z,4.15
2023-05-06T10:25:16.790Z,4.15
2023-05-06T10:27:44.676Z,4.00
2023-05-06T10:30:12.774Z,11.02
2023-05-06T10:32:44.045Z,12.52
2023-05-06T10:35:14.832Z,11.02
2023-05-06T10:37:42.340Z,10.38
2023-05-06T10:40:10.041Z,9.55
2023-05-06T10:42:36.574Z,8.55
2023-05-06T10:45:04.702Z,9.77
2023-05-06T10:47:53.630Z,11.80
2023-05-06T10:50:21.590Z,11.15
2023-05-06T10:52:50.475Z,12.57
2023-05-06T10:55:27.427Z,12.93
2023-05-06T10:57:55.624Z,10.20
2023-05-06T11:00:22.614Z,11.13
2023-05-06T11:03:01.190Z,12.75
2023-05-06T11:05:27.873Z,15.27
2023-05-06T11:08:07.094Z,8.95
2023-05-06T11:10:34.107Z,10.20
2023-05-06T11:13:24.009Z,10.68
2023-05-06T11:15:51.992Z,9.68
2023-05-06T11:18:41.302Z,10.80
2023-05-06T11:21:07.734Z,11.77
2023-05-06T11:23:49.600Z,11.00
2023-05-06T11:26:16.419Z,10.40
2023-05-06T11:28:43.650Z,11.60
2023-05-06T11:33:37.134Z,9.85
2023-05-06T11:36:04.541Z,9.98
2023-05-06T11:38:41.182Z,8.00
2023-05-06T11:41:07.836Z,9.90
2023-05-06T11:43:34.604Z,6.65
2023-05-06T11:46:01.142Z,9.30
2023-05-06T11:48:27.659Z,7.78
2023-05-06T11:50:54.826Z,9.48
2023-05-06T11:53:22.938Z,10.02
2023-05-06T11:55:51.481Z,8.88
2023-05-06T11:58:27.591Z,8.55
2023-05-06T12:00:56.788Z,8.70
2023-05-06T12:03:24.668Z,9.43
2023-05-06T12:05:52.050Z,14.75
2023-05-06T12:11:03.158Z,8.18
2023-05-06T12:13:30.919Z,7.68
2023-05-06T12:15:58.543Z,8.85
2023-05-06T12:18:25.328Z,9.93
2023-05-06T12:20:55.422Z,8.80
2023-05-06T12:23:22.140Z,13.60
2023-05-06T12:26:09.180Z,13.63
2023-05-06T12:28:36.844Z,12.60
2023-05-06T12:31:22.520Z,8.15
2023-05-06T12:33:49.929Z,9.32
2023-05-06T12:36:17.187Z,13.30
2023-05-06T12:38:53.365Z,15.55
2023-05-06T12:41:20.314Z,12.75
2023-05-06T12:43:47.225Z,13.50
2023-05-06T12:46:15.419Z,14.38
2023-05-06T12:48:55.412Z,11.48
2023-05-06T12:51:21.972Z,15.27
2023-05-06T12:53:48.508Z,14.05
2023-05-06T12:56:15.032Z,12.35
2023-05-06T12:58:41.511Z,10.43
2023-05-06T13:01:08.049Z,12.40
2023-05-06T13:03:37.979Z,12.65
2023-05-06T13:06:05.079Z,10.95
2023-05-06T13:08:31.587Z,9.02
2023-05-06T13:10:59.801Z,11.27
2023-05-06T13:13:26.356Z,10.40
2023-05-06T13:15:53.118Z,9.95
2023-05-06T13:18:19.693Z,10.40
2023-05-06T13:20:46.198Z,10.88
2023-05-06T13:23:12.787Z,10.55
2023-05-06T13:25:51.716Z,26.75
2023-05-06T13:28:25.824Z,9.60
2023-05-06T13:30:52.369Z,8.73
2023-05-06T13:33:18.842Z,8.73
2023-05-06T13:35:45.305Z,8.10
2023-05-06T13:38:11.792Z,8.15
2023-05-06T13:40:38.287Z,11.32
2023-05-06T13:43:04.738Z,8.15
2023-05-06T13:45:33.124Z,7.97
2023-05-06T13:47:59.598Z,8.02
2023-05-06T13:50:26.121Z,6.65
2023-05-06T13:52:52.547Z,8.32
2023-05-06T13:55:20.548Z,8.45
2023-05-06T13:57:47.110Z,9.60
2023-05-06T14:00:13.873Z,7.53
2023-05-06T14:02:40.601Z,6.50
2023-05-06T14:05:08.969Z,8.02
2023-05-06T14:07:37.437Z,7.47
2023-05-06T14:10:05.234Z,6.38
2023-05-06T14:12:31.912Z,7.95
2023-05-06T14:14:58.401Z,7.38
2023-05-06T14:17:25.326Z,6.63
2023-05-06T14:19:51.775Z,6.88
2023-05-06T14:22:18.221Z,6.93
2023-05-06T14:24:45.136Z,6.30
2023-05-06T14:27:11.599Z,9.55
2023-05-06T14:29:38.373Z,8.27
2023-05-06T14:32:04.853Z,5.10
2023-05-06T14:34:34.195Z,4.40
2023-05-06T14:37:00.717Z,4.90
2023-05-06T14:39:27.229Z,2.03
2023-05-06T14:41:56.533Z,3.03
2023-05-06T14:44:23.071Z,2.80
2023-05-06T14:46:49.694Z,3.47
2023-05-06T14:49:16.466Z,3.75
2023-05-06T14:51:43.348Z,3.78
2023-05-06T14:54:09.936Z,3.63
2023-05-06T14:56:36.506Z,2.75
2023-05-06T14:59:04.210Z,3.45
2023-05-06T15:01:38.748Z,3.33
2023-05-06T15:04:05.957Z,2.78
2023-05-06T15:06:33.124Z,2.70
2023-05-06T15:08:59.682Z,3.03
2023-05-06T15:11:26.215Z,2.50
2023-05-06T15:13:52.685Z,2.75
2023-05-06T15:16:19.202Z,2.65
2023-05-06T15:18:45.819Z,2.22
2023-05-06T15:21:13.401Z,3.05
2023-05-06T15:23:40.146Z,2.00
2023-05-06T15:26:06.965Z,3.53
2023-05-06T15:28:33.482Z,2.88
2023-05-06T15:31:00.028Z,2.88
2023-05-06T15:33:26.776Z,3.15
2023-05-06T15:35:53.272Z,2.92
2023-05-06T15:38:19.822Z,3.20
2023-05-06T15:40:51.028Z,2.58
2023-05-06T15:43:22.947Z,3.15
2023-05-06T15:45:50.492Z,3.47
2023-05-06T15:48:17.058Z,2.67
2023-05-06T15:50:43.567Z,3.63
2023-05-06T15:53:10.002Z,4.13
2023-05-06T15:55:45.178Z,2.95
2023-05-06T15:58:13.386Z,1.95
2023-05-06T16:00:40.011Z,1.88
2023-05-06T16:03:09.746Z,2.53
2023-05-06T16:05:38.287Z,2.70
2023-05-06T16:08:04.898Z,3.95
2023-05-06T16:10:31.361Z,3.20
2023-05-06T16:12:57.946Z,3.63
2023-05-06T16:15:24.494Z,4.40
2023-05-06T16:17:51.132Z,3.03
2023-05-06T16:20:17.745Z,2.40
2023-05-06T16:22:49.118Z,3.05
2023-05-06T16:25:16.186Z,3.35
2023-05-06T16:27:42.711Z,3.80
2023-05-06T16:30:09.882Z,2.50
2023-05-06T16:35:03.138Z,2.72
2023-05-06T16:37:29.631Z,2.15
2023-05-06T16:39:56.117Z,2.50
2023-05-06T16:42:22.630Z,3.47
2023-05-06T16:44:49.117Z,2.70
2023-05-06T16:47:16.085Z,3.22
2023-05-06T16:49:42.654Z,2.90
2023-05-06T16:52:09.115Z,2.58
2023-05-06T16:54:35.678Z,3.25
2023-05-06T16:57:03.430Z,2.42
2023-05-06T16:59:30.089Z,4.03
2023-05-06T17:01:56.631Z,2.65
2023-05-06T17:04:24.787Z,3.05
2023-05-06T17:06:51.273Z,3.15
2023-05-06T17:09:17.942Z,3.80
2023-05-06T17:11:44.382Z,4.50
2023-05-06T17:14:11.442Z,3.88
2023-05-06T17:16:41.526Z,4.55
2023-05-06T17:19:08.089Z,4.53
2023-05-06T17:21:34.705Z,3.92
2023-05-06T17:24:01.369Z,3.13
2023-05-06T17:26:27.959Z,3.97
2023-05-06T17:28:54.681Z,6.13
2023-05-06T17:31:21.269Z,3.88
2023-05-06T17:33:47.891Z,4.78
2023-05-06T17:36:16.064Z,4.25
2023-05-06T17:38:43.003Z,4.63
2023-05-06T17:41:09.632Z,5.22
2023-05-06T17:43:36.350Z,5.82
2023-05-06T17:46:03.106Z,5.45
2023-05-06T17:48:29.645Z,4.85
2023-05-06T17:51:02.472Z,5.28
2023-05-06T17:53:29.037Z,7.30
2023-05-06T17:55:55.474Z,5.60
2023-05-06T17:58:21.980Z,5.65
2023-05-06T18:00:48.518Z,5.95
2023-05-06T18:03:15.116Z,6.25
2023-05-06T18:05:41.760Z,5.75
2023-05-06T18:08:09.580Z,5.80
2023-05-06T18:10:36.263Z,4.90
2023-05-06T18:13:02.756Z,4.40
2023-05-06T18:15:29.237Z,6.00
2023-05-06T18:17:55.881Z,5.00
2023-05-06T18:20:22.542Z,4.68
2023-05-06T18:22:49.095Z,4.45
2023-05-06T18:25:15.624Z,5.43
2023-05-06T18:27:42.235Z,6.75
2023-05-06T18:30:08.966Z,7.47
2023-05-06T18:32:35.797Z,8.10
2023-05-06T18:35:02.643Z,8.15
2023-05-06T18:37:29.548Z,7.45
2023-05-06T18:39:56.907Z,7.07
2023-05-06T18:44:52.746Z,7.47
2023-05-06T18:47:22.311Z,8.68
2023-05-06T18:49:48.903Z,8.57
2023-05-06T18:52:17.668Z,6.97
2023-05-06T18:54:44.225Z,9.20
2023-05-06T18:57:10.851Z,9.25
2023-05-06T18:59:37.664Z,7.15
2023-05-06T19:02:08.058Z,8.80
2023-05-06T19:04:34.783Z,8.18
2023-05-06T19:07:01.636Z,9.10
2023-05-06T19:09:28.158Z,7.00
2023-05-06T19:11:55.466Z,7.50
2023-05-06T19:14:23.658Z,7.45
2023-05-06T19:16:51.959Z,9.48
2023-05-06T19:19:18.622Z,8.95
2023-05-06T19:21:45.141Z,8.68
2023-05-06T19:24:11.696Z,8.90
2023-05-06T19:26:39.157Z,8.48
2023-05-06T19:29:05.605Z,9.13
2023-05-06T19:31:32.171Z,8.30
2023-05-06T19:33:58.781Z,8.18
2023-05-06T19:36:25.318Z,8.98
2023-05-06T19:38:52.070Z,9.57
2023-05-06T19:41:18.513Z,8.35
2023-05-06T19:43:45.436Z,8.45
2023-05-06T19:46:12.435Z,8.05
2023-05-06T19:48:39.117Z,8.63
2023-05-06T19:51:06.567Z,8.43
2023-05-06T19:53:34.155Z,8.75
2023-05-06T19:56:13.249Z,7.50
2023-05-06T19:58:40.882Z,8.73
2023-05-06T20:01:07.524Z,8.25
2023-05-06T20:03:34.601Z,8.73
2023-05-06T20:06:01.295Z,7.78
2023-05-06T20:08:27.868Z,7.97
2023-05-06T20:10:54.517Z,10.25
2023-05-06T20:13:21.366Z,7.72
2023-05-06T20:15:48.030Z,10.77
2023-05-06T20:18:14.861Z,8.85
2023-05-06T20:20:41.473Z,8.25
2023-05-06T20:23:07.996Z,8.27
2023-05-06T20:25:36.926Z,9.50
2023-05-06T20:28:04.761Z,8.75
2023-05-06T20:30:32.204Z,10.88
2023-05-06T20:32:59.001Z,7.93
2023-05-06T20:35:26.067Z,9.02
2023-05-06T20:37:54.550Z,8.30
2023-05-06T20:40:21.398Z,7.22
2023-05-06T20:42:48.292Z,7.20
2023-05-06T20:45:14.948Z,9.13
2023-05-06T20:47:41.485Z,8.38
2023-05-06T20:50:09.121Z,8.07
2023-05-06T20:52:36.058Z,7.82
2023-05-06T20:55:03.331Z,7.40
2023-05-06T20:59:56.623Z,7.75
2023-05-06T21:02:23.156Z,8.55
2023-05-06T21:04:49.905Z,6.68
2023-05-06T21:07:16.649Z,5.88
2023-05-06T21:09:43.125Z,5.95
2023-05-06T21:12:09.616Z,8.45
2023-05-06T21:14:36.106Z,6.13
2023-05-06T21:17:02.706Z,6.03
2023-05-06T21:19:29.279Z,6.95
2023-05-06T21:21:56.884Z,9.77
2023-05-06T21:24:23.469Z,10.32
2023-05-06T21:26:51.306Z,9.25
2023-05-06T21:29:17.880Z,7.90
2023-05-06T21:31:44.369Z,6.97
2023-05-06T21:34:10.890Z,6.63
2023-05-06T21:36:37.446Z,6.70
2023-05-06T21:39:13.253Z,6.43
2023-05-06T21:41:40.100Z,7.03
2023-05-06T21:44:08.269Z,14.10
2023-05-06T21:46:35.123Z,22.90
2023-05-06T21:49:01.887Z,13.55
2023-05-06T21:51:29.177Z,21.27
2023-05-06T21:56:22.385Z,14.68
2023-05-06T21:58:48.902Z,15.20
2023-05-06T22:01:15.943Z,10.10
2023-05-06T22:06:09.466Z,9.90
2023-05-06T22:08:35.922Z,8.13
2023-05-06T22:11:02.452Z,8.60
2023-05-06T22:13:29.753Z,8.50
2023-05-06T22:18:23.129Z,8.07
2023-05-06T22:20:50.825Z,9.70
2023-05-06T22:23:19.171Z,8.75
2023-05-06T22:25:46.446Z,8.32
2023-05-06T22:30:39.334Z,8.77
2023-05-06T22:33:06.120Z,7.75
2023-05-06T22:35:32.637Z,14.82
2023-05-06T22:37:59.136Z,12.40
2023-05-06T22:40:27.781Z,14.65
2023-05-06T22:42:54.435Z,11.75
2023-05-06T22:45:21.115Z,9.95
2023-05-06T22:47:47.804Z,9.40
2023-05-06T22:50:14.355Z,7.20
2023-05-06T22:52:41.108Z,10.43
2023-05-06T22:55:09.602Z,8.52
2023-05-06T22:57:36.527Z,6.78
2023-05-06T23:00:03.960Z,7.35
2023-05-06T23:02:30.775Z,7.78
2023-05-06T23:04:57.605Z,8.18
2023-05-06T23:07:24.157Z,6.32
2023-05-06T23:09:50.733Z,7.75
2023-05-06T23:12:17.151Z,7.68
2023-05-06T23:14:43.607Z,6.20
2023-05-06T23:17:10.120Z,6.65
2023-05-06T23:19:36.647Z,7.28
2023-05-06T23:22:03.120Z,7.15
2023-05-06T23:24:29.628Z,6.78
2023-05-06T23:26:56.078Z,7.25
2023-05-06T23:29:22.501Z,6.53
2023-05-06T23:31:48.982Z,7.32
2023-05-06T23:34:15.524Z,7.10
2023-05-06T23:36:42.029Z,6.80
2023-05-06T23:39:11.399Z,7.03
2023-05-06T23:41:37.940Z,5.93
2023-05-06T23:44:04.561Z,6.18
2023-05-06T23:46:32.682Z,7.28
2023-05-06T23:48:59.455Z,6.35
2023-05-06T23:51:26.551Z,7.20
2023-05-06T23:53:53.138Z,5.90
2023-05-06T23:56:20.553Z,8.32
